sensor_id;sensor_type;location;lat;lon;timestamp;P1;durP1;ratioP1;P2;durP2;ratioP2
74483;SDS011;62942;52.462;10.846;2023-04-24T00:00:23;2.2;;;3.3;;
74483;SDS011;62942;52.462;10.846;2023-04-24T00:01:23;2.1;;;4.2;;
74483;SDS011;62942;52.462;10.846;2023-04-24T00:02:33;2.3;;;3.6;;
74483;SDS011;62942;52.462;10.846;2023-04-24T00:03:43;2.1;;;3.9;;
74483;SDS011;62942;52.462;10.846;2023-04-24T00:04:43;2.1;;;3.2;;
74483;SDS011;62942;52.462;10.846;2023-04-24T00:05:53;2.2;;;3.9;;
74483;SDS011;62942;52.462;10.846;2023-04-24T00:07:03;2.2;;;3.6;;
74483;SDS011;62942;52.462;10.846;2023-04-24T00:08:03;2;;;3;;
74483;SDS011;62942;52.462;10.846;2023-04-24T00:09:13;2.2;;;3.5;;
74483;SDS011;62942;52.462;10.846;2023-04-24T00:10:23;2.1;;;4;;
74483;SDS011;62942;52.462;10.846;2023-04-24T00:11:23;2.2;;;4.5;;
74483;SDS011;62942;52.462;10.846;2023-04-24T00:12:33;2.2;;;4.1;;
74483;SDS011;62942;52.462;10.846;2023-04-24T00:13:43;2.4;;;3.7;;
74483;SDS011;62942;52.462;10.846;2023-04-24T00:14:43;2;;;3;;
74483;SDS011;62942;52.462;10.846;2023-04-24T00:15:43;2;;;3.4;;
74483;SDS011;62942;52.462;10.846;2023-04-24T00:16:53;2;;;3.1;;
74483;SDS011;62942;52.462;10.846;2023-04-24T00:18:03;2;;;5;;
74483;SDS011;62942;52.462;10.846;2023-04-24T00:19:03;1.7;;;2.6;;
74483;SDS011;62942;52.462;10.846;2023-04-24T00:20:13;1.7;;;2.5;;
74483;SDS011;62942;52.462;10.846;2023-04-24T00:21:23;1.9;;;3.4;;
74483;SDS011;62942;52.462;10.846;2023-04-24T00:22:23;1.8;;;2.7;;
74483;SDS011;62942;52.462;10.846;2023-04-24T00:23:33;1.8;;;3;;
74483;SDS011;62942;52.462;10.846;2023-04-24T00:24:33;1.8;;;3.2;;
74483;SDS011;62942;52.462;10.846;2023-04-24T00:25:43;1.7;;;3;;
74483;SDS011;62942;52.462;10.846;2023-04-24T00:26:53;1.7;;;2.8;;
74483;SDS011;62942;52.462;10.846;2023-04-24T00:27:53;1.7;;;2.8;;
74483;SDS011;62942;52.462;10.846;2023-04-24T00:29:03;1.9;;;3.3;;
74483;SDS011;62942;52.462;10.846;2023-04-24T00:30:03;1.7;;;2.7;;
74483;SDS011;62942;52.462;10.846;2023-04-24T00:31:13;1.7;;;2.8;;
74483;SDS011;62942;52.462;10.846;2023-04-24T00:32:13;1.8;;;3.8;;
74483;SDS011;62942;52.462;10.846;2023-04-24T00:33:23;1.8;;;4.1;;
74483;SDS011;62942;52.462;10.846;2023-04-24T00:34:23;1.7;;;3.5;;
74483;SDS011;62942;52.462;10.846;2023-04-24T00:35:33;1.6;;;2.7;;
74483;SDS011;62942;52.462;10.846;2023-04-24T00:36:33;1.7;;;2.9;;
74483;SDS011;62942;52.462;10.846;2023-04-24T00:37:43;1.7;;;3.7;;
74483;SDS011;62942;52.462;10.846;2023-04-24T00:38:43;1.7;;;3.2;;
74483;SDS011;62942;52.462;10.846;2023-04-24T00:39:43;1.6;;;2.8;;
74483;SDS011;62942;52.462;10.846;2023-04-24T00:40:53;1.7;;;3;;
74483;SDS011;62942;52.462;10.846;2023-04-24T00:42:03;1.7;;;3.5;;
74483;SDS011;62942;52.462;10.846;2023-04-24T00:43:03;1.6;;;2.8;;
74483;SDS011;62942;52.462;10.846;2023-04-24T00:44:13;1.8;;;3.2;;
74483;SDS011;62942;52.462;10.846;2023-04-24T00:45:13;1.6;;;2.5;;
74483;SDS011;62942;52.462;10.846;2023-04-24T00:46:23;1.9;;;3.5;;
74483;SDS011;62942;52.462;10.846;2023-04-24T00:47:33;1.6;;;3.1;;
74483;SDS011;62942;52.462;10.846;2023-04-24T00:48:43;1.8;;;3;;
74483;SDS011;62942;52.462;10.846;2023-04-24T00:49:43;1.8;;;3.6;;
74483;SDS011;62942;52.462;10.846;2023-04-24T00:50:53;1.7;;;2.5;;
74483;SDS011;62942;52.462;10.846;2023-04-24T00:52:03;1.8;;;2.8;;
74483;SDS011;62942;52.462;10.846;2023-04-24T00:53:03;1.8;;;3;;
74483;SDS011;62942;52.462;10.846;2023-04-24T00:54:13;1.8;;;3.2;;
74483;SDS011;62942;52.462;10.846;2023-04-24T00:55:23;1.7;;;3.1;;
74483;SDS011;62942;52.462;10.846;2023-04-24T00:56:33;1.7;;;3.3;;
74483;SDS011;62942;52.462;10.846;2023-04-24T00:57:43;1.5;;;3.1;;
74483;SDS011;62942;52.462;10.846;2023-04-24T00:58:53;1.7;;;2.9;;
74483;SDS011;62942;52.462;10.846;2023-04-24T00:59:53;1.5;;;2.1;;
74483;SDS011;62942;52.462;10.846;2023-04-24T01:01:03;1.7;;;2.8;;
74483;SDS011;62942;52.462;10.846;2023-04-24T01:02:13;1.5;;;3;;
74483;SDS011;62942;52.462;10.846;2023-04-24T01:03:13;1.6;;;3.4;;
74483;SDS011;62942;52.462;10.846;2023-04-24T01:04:13;1.6;;;2.9;;
74483;SDS011;62942;52.462;10.846;2023-04-24T01:05:23;1.4;;;2.7;;
74483;SDS011;62942;52.462;10.846;2023-04-24T01:06:33;1.6;;;2.9;;
74483;SDS011;62942;52.462;10.846;2023-04-24T01:07:43;1.5;;;2.8;;
74483;SDS011;62942;52.462;10.846;2023-04-24T01:08:53;1.5;;;2.9;;
74483;SDS011;62942;52.462;10.846;2023-04-24T01:09:53;1.5;;;2.7;;
74483;SDS011;62942;52.462;10.846;2023-04-24T01:11:03;1.6;;;2.8;;
74483;SDS011;62942;52.462;10.846;2023-04-24T01:12:13;1.5;;;2.3;;
74483;SDS011;62942;52.462;10.846;2023-04-24T01:13:13;1.6;;;3.2;;
74483;SDS011;62942;52.462;10.846;2023-04-24T01:14:23;1.5;;;2.7;;
74483;SDS011;62942;52.462;10.846;2023-04-24T01:15:33;1.5;;;2.2;;
74483;SDS011;62942;52.462;10.846;2023-04-24T01:16:33;1.6;;;3.6;;
74483;SDS011;62942;52.462;10.846;2023-04-24T01:17:43;1.5;;;3.3;;
74483;SDS011;62942;52.462;10.846;2023-04-24T01:18:53;1.6;;;3;;
74483;SDS011;62942;52.462;10.846;2023-04-24T01:19:53;1.5;;;2.5;;
74483;SDS011;62942;52.462;10.846;2023-04-24T01:21:03;1.5;;;2.6;;
74483;SDS011;62942;52.462;10.846;2023-04-24T01:22:13;1.3;;;2.4;;
74483;SDS011;62942;52.462;10.846;2023-04-24T01:23:23;1.5;;;3;;
74483;SDS011;62942;52.462;10.846;2023-04-24T01:24:23;1.5;;;2.4;;
74483;SDS011;62942;52.462;10.846;2023-04-24T01:25:33;1.5;;;3.3;;
74483;SDS011;62942;52.462;10.846;2023-04-24T01:26:43;1.5;;;2.4;;
74483;SDS011;62942;52.462;10.846;2023-04-24T01:27:43;1.4;;;2.6;;
74483;SDS011;62942;52.462;10.846;2023-04-24T01:28:53;1.6;;;3;;
74483;SDS011;62942;52.462;10.846;2023-04-24T01:30:03;1.4;;;2.6;;
74483;SDS011;62942;52.462;10.846;2023-04-24T01:31:03;1.4;;;3;;
74483;SDS011;62942;52.462;10.846;2023-04-24T01:32:13;1.5;;;2.8;;
74483;SDS011;62942;52.462;10.846;2023-04-24T01:33:23;1.5;;;2.7;;
74483;SDS011;62942;52.462;10.846;2023-04-24T01:34:33;1.5;;;3.5;;
74483;SDS011;62942;52.462;10.846;2023-04-24T01:35:33;1.6;;;3.4;;
74483;SDS011;62942;52.462;10.846;2023-04-24T01:36:43;1.4;;;2.7;;
74483;SDS011;62942;52.462;10.846;2023-04-24T01:37:53;1.4;;;2.6;;
74483;SDS011;62942;52.462;10.846;2023-04-24T01:39:03;1.3;;;2.2;;
74483;SDS011;62942;52.462;10.846;2023-04-24T01:40:13;1.4;;;2.9;;
74483;SDS011;62942;52.462;10.846;2023-04-24T01:41:23;1.5;;;2.9;;
74483;SDS011;62942;52.462;10.846;2023-04-24T01:42:23;1.4;;;2.8;;
74483;SDS011;62942;52.462;10.846;2023-04-24T01:43:23;1.3;;;2.5;;
74483;SDS011;62942;52.462;10.846;2023-04-24T01:44:33;1.4;;;2.7;;
74483;SDS011;62942;52.462;10.846;2023-04-24T01:45:43;1.3;;;3;;
74483;SDS011;62942;52.462;10.846;2023-04-24T01:46:53;1.4;;;2.5;;
74483;SDS011;62942;52.462;10.846;2023-04-24T01:47:53;1.4;;;2.7;;
74483;SDS011;62942;52.462;10.846;2023-04-24T01:49:04;1.3;;;3;;
74483;SDS011;62942;52.462;10.846;2023-04-24T01:50:13;1.3;;;2.4;;
74483;SDS011;62942;52.462;10.846;2023-04-24T01:51:23;1.2;;;1.9;;
74483;SDS011;62942;52.462;10.846;2023-04-24T01:52:23;1.3;;;2.5;;
74483;SDS011;62942;52.462;10.846;2023-04-24T01:53:23;1.2;;;1.8;;
74483;SDS011;62942;52.462;10.846;2023-04-24T01:54:33;1.2;;;2.6;;
74483;SDS011;62942;52.462;10.846;2023-04-24T01:55:33;1.3;;;2.4;;
74483;SDS011;62942;52.462;10.846;2023-04-24T01:56:43;1.3;;;2.4;;
74483;SDS011;62942;52.462;10.846;2023-04-24T01:57:43;1.2;;;2.1;;
74483;SDS011;62942;52.462;10.846;2023-04-24T01:58:43;1.3;;;3.2;;
74483;SDS011;62942;52.462;10.846;2023-04-24T01:59:53;1.3;;;2.9;;
74483;SDS011;62942;52.462;10.846;2023-04-24T02:00:53;1.2;;;2.1;;
74483;SDS011;62942;52.462;10.846;2023-04-24T02:02:03;1.3;;;2.2;;
74483;SDS011;62942;52.462;10.846;2023-04-24T02:03:03;1.3;;;2.5;;
74483;SDS011;62942;52.462;10.846;2023-04-24T02:04:13;1.4;;;3.9;;
74483;SDS011;62942;52.462;10.846;2023-04-24T02:05:23;1.3;;;2.3;;
74483;SDS011;62942;52.462;10.846;2023-04-24T02:06:33;1.4;;;2.5;;
74483;SDS011;62942;52.462;10.846;2023-04-24T02:07:43;1.3;;;2.4;;
74483;SDS011;62942;52.462;10.846;2023-04-24T02:08:53;1.3;;;2.5;;
74483;SDS011;62942;52.462;10.846;2023-04-24T02:10:03;1.3;;;3;;
74483;SDS011;62942;52.462;10.846;2023-04-24T02:11:03;1.2;;;2.2;;
74483;SDS011;62942;52.462;10.846;2023-04-24T02:12:13;1.3;;;3.7;;
74483;SDS011;62942;52.462;10.846;2023-04-24T02:13:22;1.3;;;2.3;;
74483;SDS011;62942;52.462;10.846;2023-04-24T02:14:33;1.2;;;2.7;;
74483;SDS011;62942;52.462;10.846;2023-04-24T02:15:43;1.2;;;2.5;;
74483;SDS011;62942;52.462;10.846;2023-04-24T02:16:53;1.4;;;2.8;;
74483;SDS011;62942;52.462;10.846;2023-04-24T02:18:03;1.3;;;2.4;;
74483;SDS011;62942;52.462;10.846;2023-04-24T02:19:03;1.2;;;2.1;;
74483;SDS011;62942;52.462;10.846;2023-04-24T02:20:12;1.3;;;3.1;;
74483;SDS011;62942;52.462;10.846;2023-04-24T02:21:13;1.3;;;3.1;;
74483;SDS011;62942;52.462;10.846;2023-04-24T02:22:23;1.3;;;3.2;;
74483;SDS011;62942;52.462;10.846;2023-04-24T02:23:33;1.3;;;2.3;;
74483;SDS011;62942;52.462;10.846;2023-04-24T02:24:33;1.3;;;2.8;;
74483;SDS011;62942;52.462;10.846;2023-04-24T02:25:42;1.3;;;2.3;;
74483;SDS011;62942;52.462;10.846;2023-04-24T02:26:43;1.2;;;2.1;;
74483;SDS011;62942;52.462;10.846;2023-04-24T02:27:42;1.1;;;2.3;;
74483;SDS011;62942;52.462;10.846;2023-04-24T02:28:52;1.3;;;2.3;;
74483;SDS011;62942;52.462;10.846;2023-04-24T02:30:03;1.2;;;2.5;;
74483;SDS011;62942;52.462;10.846;2023-04-24T02:31:03;1.2;;;2.2;;
74483;SDS011;62942;52.462;10.846;2023-04-24T02:32:13;1.2;;;2;;
74483;SDS011;62942;52.462;10.846;2023-04-24T02:33:12;1.3;;;2.8;;
74483;SDS011;62942;52.462;10.846;2023-04-24T02:34:23;1.3;;;2.7;;
74483;SDS011;62942;52.462;10.846;2023-04-24T02:35:23;1.3;;;2.1;;
74483;SDS011;62942;52.462;10.846;2023-04-24T02:36:32;1.2;;;2.7;;
74483;SDS011;62942;52.462;10.846;2023-04-24T02:37:42;1.2;;;2.1;;
74483;SDS011;62942;52.462;10.846;2023-04-24T02:38:52;1.2;;;2.8;;
74483;SDS011;62942;52.462;10.846;2023-04-24T02:40:03;1.2;;;2.3;;
74483;SDS011;62942;52.462;10.846;2023-04-24T02:41:12;1.2;;;2.9;;
74483;SDS011;62942;52.462;10.846;2023-04-24T02:42:23;1.3;;;2.5;;
74483;SDS011;62942;52.462;10.846;2023-04-24T02:43:32;1.2;;;2.7;;
74483;SDS011;62942;52.462;10.846;2023-04-24T02:44:42;1.3;;;2.4;;
74483;SDS011;62942;52.462;10.846;2023-04-24T02:45:52;1.2;;;2.8;;
74483;SDS011;62942;52.462;10.846;2023-04-24T02:47:03;1.2;;;2.2;;
74483;SDS011;62942;52.462;10.846;2023-04-24T02:48:13;1.2;;;3.2;;
74483;SDS011;62942;52.462;10.846;2023-04-24T02:49:22;1.2;;;3.2;;
74483;SDS011;62942;52.462;10.846;2023-04-24T02:50:32;1.2;;;3;;
74483;SDS011;62942;52.462;10.846;2023-04-24T02:51:43;1.2;;;2.2;;
74483;SDS011;62942;52.462;10.846;2023-04-24T02:52:52;1.2;;;2.3;;
74483;SDS011;62942;52.462;10.846;2023-04-24T02:54:03;1.3;;;2.7;;
74483;SDS011;62942;52.462;10.846;2023-04-24T02:55:13;1.3;;;3;;
74483;SDS011;62942;52.462;10.846;2023-04-24T02:56:22;1.1;;;2.2;;
74483;SDS011;62942;52.462;10.846;2023-04-24T02:57:22;1.3;;;2.9;;
74483;SDS011;62942;52.462;10.846;2023-04-24T02:58:32;1.1;;;2.9;;
74483;SDS011;62942;52.462;10.846;2023-04-24T02:59:32;1.3;;;2.7;;
74483;SDS011;62942;52.462;10.846;2023-04-24T03:00:42;1.2;;;2.6;;
74483;SDS011;62942;52.462;10.846;2023-04-24T03:01:42;1.3;;;2.3;;
74483;SDS011;62942;52.462;10.846;2023-04-24T03:02:52;1.3;;;2.6;;
74483;SDS011;62942;52.462;10.846;2023-04-24T03:03:52;1.4;;;4.8;;
74483;SDS011;62942;52.462;10.846;2023-04-24T03:05:03;1.2;;;2.4;;
74483;SDS011;62942;52.462;10.846;2023-04-24T03:06:02;1.5;;;3.1;;
74483;SDS011;62942;52.462;10.846;2023-04-24T03:07:13;1.4;;;2.2;;
74483;SDS011;62942;52.462;10.846;2023-04-24T03:08:22;1.2;;;2.3;;
74483;SDS011;62942;52.462;10.846;2023-04-24T03:09:22;1.2;;;2.7;;
74483;SDS011;62942;52.462;10.846;2023-04-24T03:10:32;1.4;;;2.7;;
74483;SDS011;62942;52.462;10.846;2023-04-24T03:11:32;1.3;;;3.1;;
74483;SDS011;62942;52.462;10.846;2023-04-24T03:12:42;1.3;;;2.3;;
74483;SDS011;62942;52.462;10.846;2023-04-24T03:13:52;1.3;;;2.9;;
74483;SDS011;62942;52.462;10.846;2023-04-24T03:15:03;1.4;;;3.1;;
74483;SDS011;62942;52.462;10.846;2023-04-24T03:16:12;1.3;;;3.6;;
74483;SDS011;62942;52.462;10.846;2023-04-24T03:17:22;1.2;;;2.8;;
74483;SDS011;62942;52.462;10.846;2023-04-24T03:18:22;1.2;;;2.7;;
74483;SDS011;62942;52.462;10.846;2023-04-24T03:19:32;1.3;;;2.9;;
74483;SDS011;62942;52.462;10.846;2023-04-24T03:20:44;1.3;;;2.5;;
74483;SDS011;62942;52.462;10.846;2023-04-24T03:21:52;1.2;;;2.4;;
74483;SDS011;62942;52.462;10.846;2023-04-24T03:23:02;1.3;;;3;;
74483;SDS011;62942;52.462;10.846;2023-04-24T03:24:02;1.3;;;3.7;;
74483;SDS011;62942;52.462;10.846;2023-04-24T03:25:12;1.3;;;2.9;;
74483;SDS011;62942;52.462;10.846;2023-04-24T03:26:22;1.2;;;3.3;;
74483;SDS011;62942;52.462;10.846;2023-04-24T03:27:32;1.2;;;2.4;;
74483;SDS011;62942;52.462;10.846;2023-04-24T03:28:32;1.3;;;3.6;;
74483;SDS011;62942;52.462;10.846;2023-04-24T03:29:42;1.4;;;3.1;;
74483;SDS011;62942;52.462;10.846;2023-04-24T03:30:42;1.3;;;2.5;;
74483;SDS011;62942;52.462;10.846;2023-04-24T03:31:52;1.5;;;2.9;;
74483;SDS011;62942;52.462;10.846;2023-04-24T03:32:52;1.4;;;2.8;;
74483;SDS011;62942;52.462;10.846;2023-04-24T03:34:02;1.3;;;3;;
74483;SDS011;62942;52.462;10.846;2023-04-24T03:35:12;1.3;;;2.6;;
74483;SDS011;62942;52.462;10.846;2023-04-24T03:36:22;1.4;;;2.7;;
74483;SDS011;62942;52.462;10.846;2023-04-24T03:37:22;1.6;;;2.8;;
74483;SDS011;62942;52.462;10.846;2023-04-24T03:38:22;1.4;;;3.1;;
74483;SDS011;62942;52.462;10.846;2023-04-24T03:39:32;1.3;;;2.1;;
74483;SDS011;62942;52.462;10.846;2023-04-24T03:40:42;1.4;;;2.7;;
74483;SDS011;62942;52.462;10.846;2023-04-24T03:41:52;1.4;;;2.3;;
74483;SDS011;62942;52.462;10.846;2023-04-24T03:42:52;1.4;;;3.2;;
74483;SDS011;62942;52.462;10.846;2023-04-24T03:44:02;1.4;;;2.7;;
74483;SDS011;62942;52.462;10.846;2023-04-24T03:45:03;1.4;;;2.8;;
74483;SDS011;62942;52.462;10.846;2023-04-24T03:46:12;1.5;;;4;;
74483;SDS011;62942;52.462;10.846;2023-04-24T03:47:12;1.3;;;2.6;;
74483;SDS011;62942;52.462;10.846;2023-04-24T03:48:12;1.4;;;3.4;;
74483;SDS011;62942;52.462;10.846;2023-04-24T03:49:22;1.5;;;3.3;;
74483;SDS011;62942;52.462;10.846;2023-04-24T03:50:32;1.5;;;3.1;;
74483;SDS011;62942;52.462;10.846;2023-04-24T03:51:42;1.3;;;2.3;;
74483;SDS011;62942;52.462;10.846;2023-04-24T03:52:42;1.5;;;3;;
74483;SDS011;62942;52.462;10.846;2023-04-24T03:53:52;1.3;;;3.5;;
74483;SDS011;62942;52.462;10.846;2023-04-24T03:54:52;1.3;;;2.6;;
74483;SDS011;62942;52.462;10.846;2023-04-24T03:56:02;1.5;;;3.1;;
74483;SDS011;62942;52.462;10.846;2023-04-24T03:57:02;1.3;;;2.6;;
74483;SDS011;62942;52.462;10.846;2023-04-24T03:58:02;1.3;;;3;;
74483;SDS011;62942;52.462;10.846;2023-04-24T03:59:12;1.2;;;2.5;;
74483;SDS011;62942;52.462;10.846;2023-04-24T04:00:13;1.3;;;3;;
74483;SDS011;62942;52.462;10.846;2023-04-24T04:01:22;1.2;;;2.6;;
74483;SDS011;62942;52.462;10.846;2023-04-24T04:02:22;1.3;;;2.3;;
74483;SDS011;62942;52.462;10.846;2023-04-24T04:03:32;1.3;;;2.5;;
74483;SDS011;62942;52.462;10.846;2023-04-24T04:04:32;1.2;;;2.2;;
74483;SDS011;62942;52.462;10.846;2023-04-24T04:05:32;1.3;;;2.8;;
74483;SDS011;62942;52.462;10.846;2023-04-24T04:06:42;1.3;;;2.8;;
74483;SDS011;62942;52.462;10.846;2023-04-24T04:07:42;1.2;;;3.4;;
74483;SDS011;62942;52.462;10.846;2023-04-24T04:08:42;1.2;;;3;;
74483;SDS011;62942;52.462;10.846;2023-04-24T04:09:52;1.2;;;3.1;;
74483;SDS011;62942;52.462;10.846;2023-04-24T04:11:02;1.3;;;2.3;;
74483;SDS011;62942;52.462;10.846;2023-04-24T04:12:02;1.2;;;2.3;;
74483;SDS011;62942;52.462;10.846;2023-04-24T04:13:02;1.3;;;2.4;;
74483;SDS011;62942;52.462;10.846;2023-04-24T04:14:12;1.2;;;2.6;;
74483;SDS011;62942;52.462;10.846;2023-04-24T04:15:12;1.3;;;3.3;;
74483;SDS011;62942;52.462;10.846;2023-04-24T04:16:22;1.3;;;2.5;;
74483;SDS011;62942;52.462;10.846;2023-04-24T04:17:22;1.3;;;1.9;;
74483;SDS011;62942;52.462;10.846;2023-04-24T04:18:32;1.3;;;3.1;;
74483;SDS011;62942;52.462;10.846;2023-04-24T04:19:32;1.2;;;2.3;;
74483;SDS011;62942;52.462;10.846;2023-04-24T04:20:42;1.1;;;2.4;;
74483;SDS011;62942;52.462;10.846;2023-04-24T04:21:42;1.2;;;2.1;;
74483;SDS011;62942;52.462;10.846;2023-04-24T04:22:52;1.1;;;2.1;;
74483;SDS011;62942;52.462;10.846;2023-04-24T04:23:52;1.1;;;2.6;;
74483;SDS011;62942;52.462;10.846;2023-04-24T04:25:02;1.2;;;3.1;;
74483;SDS011;62942;52.462;10.846;2023-04-24T04:26:03;1.2;;;3;;
74483;SDS011;62942;52.462;10.846;2023-04-24T04:27:12;1.2;;;2.3;;
74483;SDS011;62942;52.462;10.846;2023-04-24T04:28:12;1.3;;;3.3;;
74483;SDS011;62942;52.462;10.846;2023-04-24T04:29:22;1.3;;;2.4;;
74483;SDS011;62942;52.462;10.846;2023-04-24T04:30:32;1.3;;;3;;
74483;SDS011;62942;52.462;10.846;2023-04-24T04:31:32;1.4;;;2.4;;
74483;SDS011;62942;52.462;10.846;2023-04-24T04:32:42;1.2;;;2.1;;
74483;SDS011;62942;52.462;10.846;2023-04-24T04:33:52;1.3;;;2.8;;
74483;SDS011;62942;52.462;10.846;2023-04-24T04:34:52;1.2;;;2.8;;
74483;SDS011;62942;52.462;10.846;2023-04-24T04:36:02;1.2;;;2.7;;
74483;SDS011;62942;52.462;10.846;2023-04-24T04:37:12;1.2;;;2;;
74483;SDS011;62942;52.462;10.846;2023-04-24T04:38:12;1.3;;;2.9;;
74483;SDS011;62942;52.462;10.846;2023-04-24T04:39:22;1.2;;;2.2;;
74483;SDS011;62942;52.462;10.846;2023-04-24T04:40:32;1.3;;;3.9;;
74483;SDS011;62942;52.462;10.846;2023-04-24T04:41:42;1.3;;;2.3;;
74483;SDS011;62942;52.462;10.846;2023-04-24T04:42:42;1.2;;;3.1;;
74483;SDS011;62942;52.462;10.846;2023-04-24T04:43:52;1.1;;;2.1;;
74483;SDS011;62942;52.462;10.846;2023-04-24T04:44:52;1.3;;;3.2;;
74483;SDS011;62942;52.462;10.846;2023-04-24T04:46:02;1.4;;;4.3;;
74483;SDS011;62942;52.462;10.846;2023-04-24T04:47:12;1.2;;;3.1;;
74483;SDS011;62942;52.462;10.846;2023-04-24T04:48:12;1.3;;;4.7;;
74483;SDS011;62942;52.462;10.846;2023-04-24T04:49:22;1.3;;;4;;
74483;SDS011;62942;52.462;10.846;2023-04-24T04:50:22;1.3;;;4.9;;
74483;SDS011;62942;52.462;10.846;2023-04-24T04:51:32;1.3;;;7.6;;
74483;SDS011;62942;52.462;10.846;2023-04-24T04:52:42;1.6;;;13.7;;
74483;SDS011;62942;52.462;10.846;2023-04-24T04:53:42;1.5;;;9.8;;
74483;SDS011;62942;52.462;10.846;2023-04-24T04:54:52;1.4;;;7.5;;
74483;SDS011;62942;52.462;10.846;2023-04-24T04:56:02;1.3;;;6.3;;
74483;SDS011;62942;52.462;10.846;2023-04-24T04:57:12;1.3;;;4.9;;
74483;SDS011;62942;52.462;10.846;2023-04-24T04:58:12;1.3;;;4.9;;
74483;SDS011;62942;52.462;10.846;2023-04-24T04:59:22;1.1;;;3.2;;
74483;SDS011;62942;52.462;10.846;2023-04-24T05:00:32;1.1;;;3.7;;
74483;SDS011;62942;52.462;10.846;2023-04-24T05:01:42;1.1;;;3;;
74483;SDS011;62942;52.462;10.846;2023-04-24T05:02:42;1.1;;;2.2;;
74483;SDS011;62942;52.462;10.846;2023-04-24T05:03:52;1.1;;;2.2;;
74483;SDS011;62942;52.462;10.846;2023-04-24T05:05:02;1.1;;;2.4;;
74483;SDS011;62942;52.462;10.846;2023-04-24T05:06:02;1;;;2.1;;
74483;SDS011;62942;52.462;10.846;2023-04-24T05:07:12;1.2;;;2.7;;
74483;SDS011;62942;52.462;10.846;2023-04-24T05:08:12;1.2;;;3.8;;
74483;SDS011;62942;52.462;10.846;2023-04-24T05:09:22;1.2;;;2.6;;
74483;SDS011;62942;52.462;10.846;2023-04-24T05:10:22;1.1;;;2.3;;
74483;SDS011;62942;52.462;10.846;2023-04-24T05:11:32;1.1;;;2.7;;
74483;SDS011;62942;52.462;10.846;2023-04-24T05:12:32;1;;;2.6;;
74483;SDS011;62942;52.462;10.846;2023-04-24T05:13:42;1.1;;;2.7;;
74483;SDS011;62942;52.462;10.846;2023-04-24T05:14:42;1;;;2;;
74483;SDS011;62942;52.462;10.846;2023-04-24T05:15:42;1.1;;;3;;
74483;SDS011;62942;52.462;10.846;2023-04-24T05:16:52;1.1;;;2.6;;
74483;SDS011;62942;52.462;10.846;2023-04-24T05:17:52;1.1;;;3.3;;
74483;SDS011;62942;52.462;10.846;2023-04-24T05:19:02;1.1;;;2.2;;
74483;SDS011;62942;52.462;10.846;2023-04-24T05:20:03;1.1;;;2.1;;
74483;SDS011;62942;52.462;10.846;2023-04-24T05:21:12;1.1;;;2.6;;
74483;SDS011;62942;52.462;10.846;2023-04-24T05:22:12;1;;;2.6;;
74483;SDS011;62942;52.462;10.846;2023-04-24T05:23:22;1;;;2.6;;
74483;SDS011;62942;52.462;10.846;2023-04-24T05:24:32;1;;;2.7;;
74483;SDS011;62942;52.462;10.846;2023-04-24T05:25:42;1.1;;;2.6;;
74483;SDS011;62942;52.462;10.846;2023-04-24T05:26:42;1.1;;;2.7;;
74483;SDS011;62942;52.462;10.846;2023-04-24T05:27:52;1.1;;;2.5;;
74483;SDS011;62942;52.462;10.846;2023-04-24T05:29:02;1.2;;;2.5;;
74483;SDS011;62942;52.462;10.846;2023-04-24T05:30:12;1;;;1.5;;
74483;SDS011;62942;52.462;10.846;2023-04-24T05:31:12;1;;;2.7;;
74483;SDS011;62942;52.462;10.846;2023-04-24T05:32:22;1.1;;;1.8;;
74483;SDS011;62942;52.462;10.846;2023-04-24T05:33:32;1;;;1.8;;
74483;SDS011;62942;52.462;10.846;2023-04-24T05:34:42;1;;;1.8;;
74483;SDS011;62942;52.462;10.846;2023-04-24T05:35:52;1;;;2.1;;
74483;SDS011;62942;52.462;10.846;2023-04-24T05:36:52;1.1;;;2.6;;
74483;SDS011;62942;52.462;10.846;2023-04-24T05:38:02;1.1;;;3.1;;
74483;SDS011;62942;52.462;10.846;2023-04-24T05:39:12;1;;;2.3;;
74483;SDS011;62942;52.462;10.846;2023-04-24T05:40:22;1.1;;;2.9;;
74483;SDS011;62942;52.462;10.846;2023-04-24T05:41:32;1;;;2.5;;
74483;SDS011;62942;52.462;10.846;2023-04-24T05:42:42;1;;;2.8;;
74483;SDS011;62942;52.462;10.846;2023-04-24T05:43:52;1.1;;;2.3;;
74483;SDS011;62942;52.462;10.846;2023-04-24T05:45:02;1;;;2.2;;
74483;SDS011;62942;52.462;10.846;2023-04-24T05:46:12;1;;;2.5;;
74483;SDS011;62942;52.462;10.846;2023-04-24T05:47:12;1;;;2.6;;
74483;SDS011;62942;52.462;10.846;2023-04-24T05:48:12;1;;;2.1;;
74483;SDS011;62942;52.462;10.846;2023-04-24T05:49:22;1.1;;;2.6;;
74483;SDS011;62942;52.462;10.846;2023-04-24T05:50:22;1;;;2.1;;
74483;SDS011;62942;52.462;10.846;2023-04-24T05:51:32;1.1;;;2.5;;
74483;SDS011;62942;52.462;10.846;2023-04-24T05:52:42;1;;;2.4;;
74483;SDS011;62942;52.462;10.846;2023-04-24T05:53:52;1;;;1.9;;
74483;SDS011;62942;52.462;10.846;2023-04-24T05:54:52;0.9;;;2.6;;
74483;SDS011;62942;52.462;10.846;2023-04-24T05:56:02;0.9;;;2.4;;
74483;SDS011;62942;52.462;10.846;2023-04-24T05:57:12;1.1;;;2.5;;
74483;SDS011;62942;52.462;10.846;2023-04-24T05:58:22;1;;;2.7;;
74483;SDS011;62942;52.462;10.846;2023-04-24T05:59:22;1;;;2.3;;
74483;SDS011;62942;52.462;10.846;2023-04-24T06:00:32;1;;;2.1;;
74483;SDS011;62942;52.462;10.846;2023-04-24T06:01:42;0.9;;;2.6;;
74483;SDS011;62942;52.462;10.846;2023-04-24T06:02:52;0.9;;;2.8;;
74483;SDS011;62942;52.462;10.846;2023-04-24T06:03:52;1.1;;;2.4;;
74483;SDS011;62942;52.462;10.846;2023-04-24T06:05:02;0.8;;;1.7;;
74483;SDS011;62942;52.462;10.846;2023-04-24T06:06:12;0.9;;;2.6;;
74483;SDS011;62942;52.462;10.846;2023-04-24T06:07:12;0.9;;;2;;
74483;SDS011;62942;52.462;10.846;2023-04-24T06:08:22;1.1;;;3;;
74483;SDS011;62942;52.462;10.846;2023-04-24T06:09:32;1.3;;;3;;
74483;SDS011;62942;52.462;10.846;2023-04-24T06:10:32;1.2;;;2.8;;
74483;SDS011;62942;52.462;10.846;2023-04-24T06:11:42;1.2;;;3.7;;
74483;SDS011;62942;52.462;10.846;2023-04-24T06:12:42;1;;;2.4;;
74483;SDS011;62942;52.462;10.846;2023-04-24T06:13:52;1;;;2.5;;
74483;SDS011;62942;52.462;10.846;2023-04-24T06:15:03;0.8;;;2;;
74483;SDS011;62942;52.462;10.846;2023-04-24T06:16:12;0.8;;;1.7;;
74483;SDS011;62942;52.462;10.846;2023-04-24T06:17:12;0.9;;;2.2;;
74483;SDS011;62942;52.462;10.846;2023-04-24T06:18:22;0.9;;;2.4;;
74483;SDS011;62942;52.462;10.846;2023-04-24T06:19:22;0.8;;;1.7;;
74483;SDS011;62942;52.462;10.846;2023-04-24T06:20:32;0.9;;;2.1;;
74483;SDS011;62942;52.462;10.846;2023-04-24T06:21:42;0.9;;;1.7;;
74483;SDS011;62942;52.462;10.846;2023-04-24T06:22:52;0.8;;;1.8;;
74483;SDS011;62942;52.462;10.846;2023-04-24T06:24:02;0.9;;;2.2;;
74483;SDS011;62942;52.462;10.846;2023-04-24T06:25:12;0.8;;;1.5;;
74483;SDS011;62942;52.462;10.846;2023-04-24T06:26:22;0.9;;;2.3;;
74483;SDS011;62942;52.462;10.846;2023-04-24T06:27:32;0.8;;;1.9;;
74483;SDS011;62942;52.462;10.846;2023-04-24T06:28:42;0.8;;;1.4;;
74483;SDS011;62942;52.462;10.846;2023-04-24T06:29:42;0.9;;;2.2;;
74483;SDS011;62942;52.462;10.846;2023-04-24T06:30:52;0.8;;;1.4;;
74483;SDS011;62942;52.462;10.846;2023-04-24T06:31:52;0.8;;;2.3;;
74483;SDS011;62942;52.462;10.846;2023-04-24T06:32:52;0.9;;;2.6;;
74483;SDS011;62942;52.462;10.846;2023-04-24T06:34:02;0.9;;;2.1;;
74483;SDS011;62942;52.462;10.846;2023-04-24T06:35:12;0.8;;;2;;
74483;SDS011;62942;52.462;10.846;2023-04-24T06:36:22;0.8;;;1.4;;
74483;SDS011;62942;52.462;10.846;2023-04-24T06:37:32;0.8;;;2;;
74483;SDS011;62942;52.462;10.846;2023-04-24T06:38:42;0.9;;;2.1;;
74483;SDS011;62942;52.462;10.846;2023-04-24T06:39:52;0.8;;;1.8;;
74483;SDS011;62942;52.462;10.846;2023-04-24T06:41:02;0.7;;;1.9;;
74483;SDS011;62942;52.462;10.846;2023-04-24T06:42:12;0.8;;;2.4;;
74483;SDS011;62942;52.462;10.846;2023-04-24T06:43:22;0.9;;;2.6;;
74483;SDS011;62942;52.462;10.846;2023-04-24T06:44:32;0.8;;;1.9;;
74483;SDS011;62942;52.462;10.846;2023-04-24T06:45:32;0.9;;;2.7;;
74483;SDS011;62942;52.462;10.846;2023-04-24T06:46:42;0.7;;;1.9;;
74483;SDS011;62942;52.462;10.846;2023-04-24T06:47:52;0.7;;;1.4;;
74483;SDS011;62942;52.462;10.846;2023-04-24T06:48:52;0.8;;;2.3;;
74483;SDS011;62942;52.462;10.846;2023-04-24T06:49:52;0.7;;;1.9;;